createdAt,value
2022-11-28T00:22:31.852Z,26
2022-11-28T00:51:40.663Z,25
2022-11-28T01:20:43.419Z,25
2022-11-28T01:49:43.995Z,25
2022-11-28T02:18:50.255Z,21
2022-11-28T02:47:33.238Z,22
2022-11-28T03:16:35.250Z,21
2022-11-28T03:45:37.402Z,21
2022-11-28T04:14:31.393Z,21
2022-11-28T04:43:29.911Z,24
2022-11-28T05:12:31.884Z,27
2022-11-28T05:41:35.334Z,22
2022-11-28T06:10:32.668Z,22
2022-11-28T06:39:40.045Z,24
2022-11-28T07:08:23.681Z,20
2022-11-28T07:37:19.979Z,22
2022-11-28T08:06:23.535Z,26
2022-11-28T08:35:43.895Z,24
2022-11-28T09:05:06.434Z,26
2022-11-28T09:34:30.120Z,26
2022-11-28T10:03:48.008Z,26
2022-11-28T10:33:00.977Z,29
2022-11-28T11:02:06.824Z,22
2022-11-28T11:31:24.395Z,25
2022-11-28T12:00:39.749Z,24
2022-11-28T12:29:53.928Z,22
2022-11-28T12:59:13.388Z,23
2022-11-28T13:28:26.498Z,14
2022-11-28T13:57:46.761Z,14
2022-11-28T14:27:08.591Z,24
2022-11-28T14:56:19.575Z,25
2022-11-28T15:25:41.623Z,30
2022-11-28T15:55:02.736Z,32
2022-11-28T16:24:22.418Z,34
2022-11-28T16:53:38.313Z,39
2022-11-28T17:22:49.011Z,40
2022-11-28T17:51:59.615Z,37
2022-11-28T18:21:09.422Z,32
2022-11-28T18:50:29.325Z,32
2022-11-28T19:19:40.072Z,32
2022-11-28T19:48:58.967Z,31
2022-11-28T20:18:14.531Z,31
2022-11-28T20:47:27.158Z,28
2022-11-28T21:16:51.368Z,26
2022-11-28T21:46:07.140Z,28
2022-11-28T22:15:22.949Z,29
2022-11-28T22:44:47.210Z,29
2022-11-28T23:14:10.880Z,28
2022-11-28T23:43:34.703Z,25
